KASX/ASX METAR and TAF weather

Enter ICAO airport designator
Station Type Date Time Source
KASX METAR 2020/09/26 10:53 UTC NOAA

KASX 261053Z AUTO 00000KT 1/4SM FG VV004 11/11 A2968 RMK AO2 SLP054 T01060106


Station Type Date Time Source
KASX Decoded METAR 2020/09/26 10:53 UTC NOAA

ASHLAND KENNEDY MEMORIAL, WI, United States (KASX) 46-33N 090-55W 251M
Sep 26, 2020 - 06:53 AM EDT / 2020.09.26 1053 UTC
Wind: Calm:0
Visibility: 1/4 mile(s):0
Sky conditions: obscured
Weather: fog
Temperature: 51.1 F (10.6 C)
Dew Point: 51.1 F (10.6 C)
Relative Humidity: 100%
Pressure (altimeter): 29.68 in. Hg (1005 hPa)
ob: KASX 261053Z AUTO 00000KT 1/4SM FG VV004 11/11 A2968 RMK AO2 SLP054 T01060106
cycle: 11

Station Type Date Time Source
KASX TAF UTC NOAA

Error!

Example: see airport list